Hooksett, NH

4:14 AM EDT on April 26, 2017 (GMT -0400)
Bullard Drive | | Change Station

Elev 292 ft 43.10 °N, 71.46 °W | Updated 8 seconds ago

Rain
Rain
45.2 °F
Feels Like 45 °F
N
2.0
Wind Variable Wind from NNW
Gusts 3.5 mph

Today
High -- | Low -- °F
--% Chance of Precip.
Yesterday
High -- | Low -- °F
Precip. -- in
Pressure 30.02 in
Visibility 5.0 miles
Clouds Mostly Cloudy 700 ft
Overcast 1400 ft
Windchill 45 °F
Dew Point 44 °F
Humidity 97%
Rainfall 0.17 in
Snow Depth Not available.
5:46 AM 7:41 PM
Waning Crescent, 0% visible
METAR KCON 260751Z AUTO 02007KT 5SM -RA BR BKN007 OVC014 07/06 A3001 RMK AO2 SLP164 P0003 T00720061
Pressure 30.02 in
Visibility 5.0 miles
Clouds Mostly Cloudy 700 ft
Overcast 1400 ft
Windchill 45 °F
Dew Point 44 °F
Humidity 97%
Rainfall 0.17 in
Snow Depth Not available.
5:46 AM 7:41 PM
Waning Crescent, 0% visible
METAR KCON 260751Z AUTO 02007KT 5SM -RA BR BKN007 OVC014 07/06 A3001 RMK AO2 SLP164 P0003 T00720061

Get Severe Weather Alerts

Thanks for signing up!

Be on the lookout for a verification email in your inbox.

You'll start receiving the daily forecast at 8 AM.

×

10-Day Weather Forecast

Almanac

Astronomy

Apr. 26, 2017 Rise Set
Actual Time
Civil Twilight
Nautical Twilight
Astronomical Twilight
Moon
Length of Visible Light
Length of Day
Tomorrow will be .
, % of the Moon is Illuminated

Today's Extremes

State Highs State Lows

Community

WunderPhotos

WunderBlog® & News

Nearby

Air Quality

  Air Quality AQ Index Pollutant
Not available.

Snow Depth

Station Depth Elevation

Earthquake Activity

City Distance Mag. Time & Date
Minimum magnitude displayed is 2.5.

Coastal Water Temperatures

Place Temperature

Stations

Nearby Weather Stations

Station Location Temp. Windchill Dew Point Humidity Wind Precip. Elev Updated Type
                   

Watches & Warnings

There are currently no watches in effect.